Time;durP1;ratioP1;P1;durP2;ratioP2;P2;SDS_P1;SDS_P2;PMS_P1;PMS_P2;Temp;Humidity;BMP_temperature;BMP_pressure;BME280_temperature;BME280_humidity;BME280_pressure;Samples;Min_cycle;Max_cycle;Signal;HPM_P1;HPM_P2
2022/09/30 00:51:37;;;;;;;23.50;19.63;;;;;;;5.08;100.00;67342.91;5062269;28;20044;-89
2022/09/30 00:54:13;;;;;;;21.30;19.00;;;;;;;5.10;100.00;67342.53;5049745;28;20037;-87
2022/09/30 00:56:43;;;;;;;21.60;19.10;;;;;;;5.08;100.00;67340.28;5033185;28;20045;-89
2022/09/30 00:59:15;;;;;;;23.20;19.55;;;;;;;5.08;100.00;67340.28;5063457;28;20112;-87
2022/09/30 01:01:40;;;;;;;22.27;19.85;;;;;;;;;;5064080;28;20032;-89
2022/09/30 01:04:13;;;;;;;23.95;19.98;;;;;;;5.04;100.00;67335.19;5017636;28;20046;-89
2022/09/30 01:06:39;;;;;;;21.30;19.00;;;;;;;5.02;100.00;67333.50;5010724;28;20038;-86
2022/09/30 01:09:05;;;;;;;23.33;20.77;;;;;;;4.95;100.00;67328.81;4987925;28;20517;-86
2022/09/30 01:11:30;;;;;;;22.10;19.60;;;;;;;4.97;100.00;67328.41;5005759;28;20197;-87
2022/09/30 01:14:00;;;;;;;20.90;18.67;;;;;;;;;;5007096;28;20077;-86
2022/09/30 01:16:25;;;;;;;20.88;17.95;;;;;;;4.92;100.00;67317.50;4984084;28;20042;-86
2022/09/30 01:19:10;;;;;;;22.30;19.30;;;;;;;;;;4998631;28;20037;-86
2022/09/30 01:21:44;;;;;;;21.98;19.60;;;;;;;4.92;100.00;67322.78;4996091;28;20486;-85
2022/09/30 01:24:21;;;;;;;21.80;19.50;;;;;;;4.88;100.00;67317.69;4983621;28;20069;-85
2022/09/30 01:27:03;;;;;;;22.55;19.30;;;;;;;4.83;100.00;67312.59;4988995;28;20050;-89
2022/09/30 01:29:50;;;;;;;22.85;20.08;;;;;;;4.73;100.00;67301.88;5000953;28;20081;-88
2022/09/30 01:32:27;;;;;;;24.35;21.70;;;;;;;4.74;100.00;67305.06;4995088;28;20043;-87
2022/09/30 01:35:06;;;;;;;24.95;21.52;;;;;;;;;;5015923;28;20049;-85
2022/09/30 01:37:37;;;;;;;;;;;;;;;4.70;100.00;67297.94;5048039;28;20138;-89
2022/09/30 01:40:25;;;;;;;23.95;20.75;;;;;;;4.58;100.00;67284.38;5044934;28;19917;-86
2022/09/30 01:43:03;;;;;;;25.03;22.10;;;;;;;;;;5043984;28;20036;-85
2022/09/30 01:45:36;;;;;;;27.27;24.08;;;;;;;4.63;100.00;67285.31;5048795;28;20299;-85
2022/09/30 01:48:04;;;;;;;26.17;22.98;;;;;;;4.70;100.00;67297.94;5064336;28;20033;-87
2022/09/30 01:50:38;;;;;;;26.15;23.38;;;;;;;;;;5044321;28;20282;-85
2022/09/30 01:53:17;;;;;;;27.88;22.73;;;;;;;4.68;100.00;67296.22;5044301;28;20064;-84
2022/09/30 01:55:59;;;;;;;25.23;22.52;;;;;;;4.64;100.00;67286.44;5062720;28;20124;-85
2022/09/30 01:58:43;;;;;;;26.20;23.10;;;;;;;;;;5044668;28;20112;-85
2022/09/30 02:01:32;;;;;;;27.30;24.13;;;;;;;4.62;100.00;67288.91;5036758;28;20048;-87
2022/09/30 02:04:04;;;;;;;26.90;23.73;;;;;;;4.63;100.00;67293.22;5062194;28;20418;-86
2022/09/30 02:06:36;;;;;;;27.13;24.05;;;;;;;4.59;100.00;67286.06;5043806;28;20045;-85
2022/09/30 02:09:08;;;;;;;28.10;23.58;;;;;;;4.57;100.00;67283.81;5041743;28;20072;-85
2022/09/30 02:11:35;;;;;;;27.42;24.50;;;;;;;;;;5029052;28;20052;-85
2022/09/30 02:14:11;;;;;;;28.13;24.17;;;;;;;4.54;100.00;67280.41;5043059;28;20048;-86
2022/09/30 02:16:39;;;;;;;26.58;23.75;;;;;;;4.56;100.00;67284.75;5014294;28;20045;-87
2022/09/30 02:19:17;;;;;;;25.45;22.17;;;;;;;4.50;100.00;67275.91;5038446;28;20125;-86
2022/09/30 02:21:47;;;;;;;26.02;22.60;;;;;;;4.47;100.00;67278.34;5023343;28;20049;-86
2022/09/30 02:24:18;;;;;;;30.88;26.35;;;;;;;4.53;100.00;67279.84;5041967;28;20120;-85
2022/09/30 02:26:47;;;;;;;29.60;24.75;;;;;;;4.55;100.00;67281.00;5041181;28;20044;-85
2022/09/30 02:29:23;;;;;;;26.95;24.00;;;;;;;4.46;100.00;67271.38;5041924;28;20037;-86
2022/09/30 02:31:49;;;;;;;29.17;22.67;;;;;;;;;;5038962;28;20097;-85
2022/09/30 02:34:26;;;;;;;28.80;25.17;;;;;;;4.49;100.00;67275.34;5043636;28;20045;-86
2022/09/30 02:37:01;;;;;;;28.92;23.77;;;;;;;;;;5036992;28;20037;-85
2022/09/30 02:39:37;;;;;;;28.33;22.88;;;;;;;;;;5039570;28;20057;-85
2022/09/30 02:42:19;;;;;;;26.52;23.33;;;;;;;4.31;100.00;67255.03;5043366;28;20045;-85
2022/09/30 02:44:45;;;;;;;28.88;25.00;;;;;;;4.33;100.00;67256.72;5035294;28;20122;-85
2022/09/30 02:47:25;;;;;;;24.90;21.63;;;;;;;4.27;100.00;67251.06;5043684;28;20049;-85
2022/09/30 02:50:30;;;;;;;27.45;22.48;;;;;;;4.28;100.00;67252.19;5048520;28;20091;-88
2022/09/30 02:53:15;;;;;;;26.17;23.38;;;;;;;4.28;100.00;67252.19;5045441;28;20124;-85
2022/09/30 02:56:11;;;;;;;28.20;23.98;;;;;;;4.23;100.00;67246.00;5039158;28;20055;-85
2022/09/30 02:58:39;;;;;;;28.80;23.92;;;;;;;;;;5046008;28;20052;-84
2022/09/30 03:01:07;;;;;;;26.60;22.88;;;;;;;4.19;100.00;67241.47;5041649;28;20043;-85
2022/09/30 03:03:54;;;;;;;27.90;23.75;;;;;;;4.20;100.00;67245.81;5038322;28;20500;-86
2022/09/30 03:06:20;;;;;;;30.02;25.58;;;;;;;4.18;100.00;67240.91;5072932;28;20045;-90
2022/09/30 03:08:46;;;;;;;31.02;25.10;;;;;;;4.17;100.00;67242.44;5069649;28;20056;-91
2022/09/30 03:11:18;;;;;;;31.40;26.48;;;;;;;4.20;100.00;67243.19;5066664;28;20108;-89
2022/09/30 03:14:02;;;;;;;28.88;25.35;;;;;;;4.18;100.00;67245.63;5058401;28;20097;-87
2022/09/30 03:16:38;;;;;;;30.35;25.42;;;;;;;;;;5067947;28;20033;-90
2022/09/30 03:19:12;;;;;;;27.55;22.67;;;;;;;4.08;100.00;67221.72;5069773;28;20202;-86
2022/09/30 03:21:50;;;;;;;28.27;23.70;;;;;;;4.13;100.00;67235.28;5085376;28;20052;-91
2022/09/30 03:24:27;;;;;;;29.40;26.05;;;;;;;4.09;100.00;67230.78;5086862;28;20039;-91
2022/09/30 03:27:14;;;;;;;30.00;26.67;;;;;;;4.13;100.00;67230.00;5066614;28;20130;-87
2022/09/30 03:29:53;;;;;;;28.80;24.63;;;;;;;4.12;100.00;67234.16;5053507;28;20053;-85
2022/09/30 03:32:19;;;;;;;;;;;;;;;4.11;100.00;67233.00;5053464;28;20136;-88
2022/09/30 03:34:54;;;;;;;32.00;27.50;;;;;;;;;;5054928;28;19967;-84
2022/09/30 03:37:27;;;;;;;33.08;27.75;;;;;;;4.06;100.00;67227.38;5061267;28;20041;-87
2022/09/30 03:40:01;;;;;;;31.75;27.25;;;;;;;;;;5046255;28;20045;-86
2022/09/30 03:42:32;;;;;;;30.35;26.90;;;;;;;4.05;100.00;67226.25;5046398;28;20073;-87
2022/09/30 03:45:15;;;;;;;29.10;23.58;;;;;;;3.96;100.00;67219.28;5050200;28;20504;-86
2022/09/30 03:47:45;;;;;;;32.95;26.70;;;;;;;3.99;100.00;67219.47;5029802;28;20042;-86
2022/09/30 03:50:14;;;;;;;31.48;25.20;;;;;;;3.94;100.00;67216.47;5039875;28;20043;-87
2022/09/30 03:52:40;;;;;;;33.47;26.95;;;;;;;4.01;100.00;67222.28;5028268;28;20041;-86
2022/09/30 03:55:07;;;;;;;28.38;25.33;;;;;;;4.04;100.00;67227.75;5046838;28;20041;-88
2022/09/30 03:57:32;;;;;;;28.05;25.05;;;;;;;;;;5045300;28;20060;-85
2022/09/30 03:59:58;;;;;;;28.58;25.00;;;;;;;;;;5053655;28;20509;-87
2022/09/30 04:02:25;;;;;;;31.08;24.70;;;;;;;3.95;100.00;67215.53;5050985;28;20041;-87
2022/09/30 04:04:50;;;;;;;27.73;24.73;;;;;;;3.97;100.00;67217.78;5052184;28;20032;-89
2022/09/30 04:07:16;;;;;;;29.90;25.67;;;;;;;3.96;100.00;67216.66;5052458;28;20052;-85
2022/09/30 04:09:41;;;;;;;28.30;22.63;;;;;;;3.89;100.00;67211.41;5054066;28;20036;-85
2022/09/30 04:12:07;;;;;;;30.20;25.40;;;;;;;;;;5054833;28;20091;-86
2022/09/30 04:14:33;;;;;;;31.27;24.27;;;;;;;3.89;100.00;67208.75;5050918;28;20041;-86
2022/09/30 04:16:59;;;;;;;33.17;27.17;;;;;;;3.91;100.00;67213.63;5042422;28;20053;-88
2022/09/30 04:19:24;;;;;;;30.05;24.83;;;;;;;3.90;100.00;67209.88;5044019;28;20454;-88
2022/09/30 04:21:51;;;;;;;31.42;26.50;;;;;;;3.92;100.00;67212.16;5044638;28;20634;-85
2022/09/30 04:24:18;;;;;;;32.13;27.08;;;;;;;3.84;100.00;67203.69;5041399;28;20572;-86
2022/09/30 04:26:43;;;;;;;33.03;27.40;;;;;;;3.86;100.00;67204.81;5056999;28;20048;-85
2022/09/30 04:29:08;;;;;;;32.00;27.27;;;;;;;3.82;100.00;67201.41;5046038;28;20483;-85
2022/09/30 04:31:34;;;;;;;29.35;25.63;;;;;;;3.81;100.00;67200.28;5046908;28;20037;-85
2022/09/30 04:33:59;;;;;;;30.98;25.75;;;;;;;3.82;100.00;67203.47;5042261;28;20063;-87
2022/09/30 04:36:24;;;;;;;29.55;26.17;;;;;;;3.84;100.00;67203.13;5055926;28;20072;-84
2022/09/30 04:38:51;;;;;;;33.22;26.80;;;;;;;3.81;100.00;67200.28;5043025;28;20053;-86
2022/09/30 04:41:17;;;;;;;32.75;26.85;;;;;;;3.82;100.00;67206.13;5047269;28;20048;-84
2022/09/30 04:43:45;;;;;;;33.60;28.33;;;;;;;;;;5044701;28;20041;-84
2022/09/30 04:46:11;;;;;;;29.80;25.08;;;;;;;3.72;100.00;67190.16;5059390;28;20399;-86
2022/09/30 04:48:36;;;;;;;31.65;24.02;;;;;;;3.63;100.00;67182.06;5043143;28;20127;-89
2022/09/30 04:51:02;;;;;;;32.90;26.95;;;;;;;;;;5044812;28;20136;-88
2022/09/30 04:53:28;;;;;;;36.20;28.48;;;;;;;3.71;100.00;67189.03;5054088;28;20049;-85
2022/09/30 04:56:00;;;;;;;31.33;26.80;;;;;;;3.70;100.00;67187.88;5061637;28;20510;-85
2022/09/30 04:58:27;;;;;;;33.15;26.40;;;;;;;3.67;100.00;67183.94;5045114;28;20137;-86
2022/09/30 05:00:58;;;;;;;28.83;24.52;;;;;;;;;;5048069;28;20312;-88
2022/09/30 05:03:24;;;;;;;33.55;27.33;;;;;;;3.57;100.00;67175.84;5045831;28;20068;-87
2022/09/30 05:05:50;;;;;;;32.92;26.23;;;;;;;;;;5057722;28;20037;-86
2022/09/30 05:08:15;;;;;;;36.67;29.48;;;;;;;3.74;100.00;67191.81;5038806;28;20147;-85
2022/09/30 05:10:41;;;;;;;39.20;30.10;;;;;;;3.75;100.00;67193.53;5048445;28;20095;-84
2022/09/30 05:13:06;;;;;;;29.58;24.88;;;;;;;3.67;100.00;67187.13;5049654;28;20060;-86
2022/09/30 05:15:34;;;;;;;32.22;25.58;;;;;;;3.65;100.00;67181.69;5040394;28;20607;-86
2022/09/30 05:17:59;;;;;;;31.27;24.88;;;;;;;3.58;100.00;67174.91;5045637;28;20226;-86
2022/09/30 05:20:24;;;;;;;34.53;27.73;;;;;;;;;;5041332;28;20118;-87
2022/09/30 05:22:55;;;;;;;36.67;28.10;;;;;;;3.55;100.00;67170.97;5058724;28;20037;-86
2022/09/30 05:25:20;;;;;;;34.15;26.00;;;;;;;3.61;100.00;67177.72;5042589;28;20069;-85
2022/09/30 05:27:58;;;;;;;32.35;26.45;;;;;;;3.52;100.00;67167.59;5045845;28;20063;-86
2022/09/30 05:30:27;;;;;;;35.08;28.90;;;;;;;3.52;100.00;67168.16;5015600;28;20041;-89
2022/09/30 05:32:52;;;;;;;;;;;;;;;;;;4970584;28;20046;-84
2022/09/30 05:35:18;;;;;;;38.30;29.13;;;;;;;;;;4983930;28;19928;-86
2022/09/30 05:37:43;;;;;;;37.67;29.98;;;;;;;;;;4984079;28;20046;-86
2022/09/30 05:40:08;;;;;;;34.10;27.83;;;;;;;;;;4984700;28;20049;-87
2022/09/30 05:42:35;;;;;;;36.30;29.30;;;;;;;3.47;100.00;67167.19;4984690;28;20038;-86
2022/09/30 05:45:05;;;;;;;35.83;28.73;;;;;;;3.50;100.00;67165.31;4980540;28;20046;-85
2022/09/30 05:47:32;;;;;;;34.65;29.50;;;;;;;3.52;100.00;67173.41;4984346;28;20050;-85
2022/09/30 05:50:09;;;;;;;37.72;29.00;;;;;;;3.54;100.00;67172.47;4984583;28;20062;-84
2022/09/30 05:52:34;;;;;;;37.03;29.38;;;;;;;;;;4984227;28;20046;-85
2022/09/30 05:55:00;;;;;;;44.03;31.65;;;;;;;3.68;100.00;67190.88;4983461;28;20053;-86
2022/09/30 05:57:28;;;;;;;38.03;29.02;;;;;;;3.68;100.00;67179.78;5016221;28;20053;-86
2022/09/30 06:00:05;;;;;;;42.78;33.22;;;;;;;3.77;100.00;67195.78;5038418;28;20415;-85
2022/09/30 06:02:31;;;;;;;50.10;35.42;;;;;;;3.99;100.00;67220.03;5044609;28;20049;-86
2022/09/30 06:04:56;;;;;;;48.83;38.05;;;;;;;;;;5065853;28;20175;-86
2022/09/30 06:07:25;;;;;;;45.15;33.58;;;;;;;4.19;100.00;67242.03;5043298;28;20627;-86
2022/09/30 06:09:50;;;;;;;52.72;38.53;;;;;;;4.34;100.00;67252.56;5040360;28;20136;-86
2022/09/30 06:12:16;;;;;;;48.25;36.72;;;;;;;4.48;100.00;67274.22;5046185;28;20567;-88
2022/09/30 06:14:41;;;;;;;46.55;34.85;;;;;;;;;;5049125;28;20052;-85
2022/09/30 06:17:06;;;;;;;43.22;34.08;;;;;;;;;;5037976;28;20053;-87
2022/09/30 06:19:32;;;;;;;51.10;38.78;;;;;;;4.64;100.00;67291.72;5048346;28;20045;-87
2022/09/30 06:21:57;;;;;;;56.47;43.40;;;;;;;4.79;100.00;67302.25;5046175;28;20037;-85
2022/09/30 06:24:23;;;;;;;57.13;43.30;;;;;;;4.95;100.00;67326.16;5050146;28;20033;-86
2022/09/30 06:26:49;;;;;;;57.17;45.28;;;;;;;5.09;100.00;67335.56;5051018;28;20051;-86
2022/09/30 06:29:14;;;;;;;58.20;47.42;;;;;;;5.16;100.00;67344.03;5050649;28;20041;-86
2022/09/30 06:31:39;;;;;;;56.95;41.85;;;;;;;5.30;100.00;67356.09;5053281;28;20087;-85
2022/09/30 06:34:05;;;;;;;59.45;43.08;;;;;;;5.40;100.00;67375.84;5055351;28;20067;-87
2022/09/30 06:36:32;;;;;;;53.55;39.13;;;;;;;;;;5054645;28;20488;-86
2022/09/30 06:38:58;;;;;;;52.25;39.25;;;;;;;;;;5053430;28;20422;-87
2022/09/30 06:41:26;;;;;;;54.17;41.05;;;;;;;5.58;100.00;67395.06;5054616;28;20045;-86
2022/09/30 06:43:51;;;;;;;49.22;38.72;;;;;;;5.66;100.00;67404.66;5055242;28;20123;-85
2022/09/30 06:46:16;;;;;;;53.72;39.50;;;;;;;5.79;100.00;67412.97;5037812;28;20048;-88
2022/09/30 06:48:42;;;;;;;51.85;40.08;;;;;;;;;;5053839;28;20094;-87
2022/09/30 06:51:10;;;;;;;53.15;43.13;;;;;;;;;;5047556;28;20033;-87
2022/09/30 06:53:36;;;;;;;56.63;45.03;;;;;;;;;;5045136;28;20347;-87
2022/09/30 06:56:01;;;;;;;53.22;40.22;;;;;;;6.14;100.00;67451.41;5052694;28;20044;-87
2022/09/30 06:58:26;;;;;;;56.67;40.75;;;;;;;;;;5049674;28;20076;-85
2022/09/30 07:01:00;;;;;;;51.42;42.97;;;;;;;;;;5051751;28;20052;-87
2022/09/30 09:05:00;;;;;;;19.10;17.05;;;;;;;10.72;97.17;67964.78;4934087;22;20045;-85
2022/09/30 09:07:25;;;;;;;;;;;;;;;;;;5024274;28;20064;-86
2022/09/30 09:10:12;;;;;;;21.50;16.85;;;;;;;10.94;97.26;67983.88;5042400;28;19916;-86
2022/09/30 09:12:50;;;;;;;20.38;16.40;;;;;;;;;;5043569;28;20410;-86
2022/09/30 09:15:26;;;;;;;21.45;17.35;;;;;;;11.13;94.77;68004.28;5034959;28;20128;-85
2022/09/30 13:58:04;;;;;;;;;;;;;;;16.89;65.15;68645.63;5037533;28;20048;-87
2022/09/30 14:01:28;;;;;;;14.85;10.95;;;;;;;16.80;65.06;68632.66;4979844;28;19921;-86
2022/09/30 14:04:06;;;;;;;12.43;11.02;;;;;;;16.97;64.76;68654.16;4842554;29;20044;-86
2022/09/30 14:06:50;;;;;;;13.40;10.35;;;;;;;16.88;66.22;68645.03;4920363;28;20067;-87
2022/09/30 14:09:34;;;;;;;10.75;9.02;;;;;;;17.23;65.16;68683.81;4964209;28;20129;-87
2022/09/30 14:12:15;;;;;;;10.30;8.38;;;;;;;17.06;63.31;68659.03;4938008;28;20059;-86
2022/09/30 14:15:08;;;;;;;11.57;9.48;;;;;;;16.94;64.26;68645.34;4966282;28;20529;-86
2022/09/30 14:18:03;;;;;;;9.63;7.55;;;;;;;17.25;64.89;68683.41;4946636;28;20086;-87
2022/09/30 14:20:52;;;;;;;9.32;7.68;;;;;;;17.33;65.02;68691.97;4933573;28;20043;-87
2022/09/30 14:23:23;;;;;;;9.48;7.53;;;;;;;17.24;63.96;68679.00;4939943;28;21391;-87
2022/09/30 14:26:14;;;;;;;9.02;7.50;;;;;;;17.04;63.71;68657.34;4919732;29;20890;-87
2022/09/30 14:28:39;;;;;;;9.25;8.23;;;;;;;16.74;63.56;68626.34;4912832;28;20138;-88
2022/09/30 14:31:08;;;;;;;8.98;7.63;;;;;;;16.69;64.70;68615.28;4958051;28;20122;-87
2022/09/30 14:33:35;;;;;;;10.00;8.02;;;;;;;16.78;63.87;68633.63;4986144;28;20041;-90
2022/09/30 14:36:05;;;;;;;11.55;8.10;;;;;;;16.56;65.12;68603.16;5018879;28;20065;-87
2022/09/30 14:38:32;;;;;;;10.65;8.52;;;;;;;16.37;66.46;68582.63;5007209;28;20305;-88
2022/09/30 14:41:07;;;;;;;10.10;8.27;;;;;;;16.26;65.62;68570.09;5023587;28;20115;-88
2022/09/30 14:43:36;;;;;;;11.32;8.38;;;;;;;16.21;66.58;68564.97;5025332;28;20036;-88
2022/09/30 14:46:15;;;;;;;9.57;8.02;;;;;;;16.36;66.62;68583.59;5024666;28;20040;-89
2022/09/30 14:48:44;;;;;;;8.48;7.13;;;;;;;16.51;65.86;68598.00;5024062;28;20575;-89
2022/09/30 14:51:12;;;;;;;10.30;7.72;;;;;;;16.51;65.22;68602.81;5015385;28;20052;-87
2022/09/30 14:53:52;;;;;;;9.13;8.00;;;;;;;16.47;64.53;68594.03;5024666;28;20125;-88
2022/09/30 14:56:21;;;;;;;8.88;7.72;;;;;;;16.57;66.45;68606.97;5018950;28;20136;-89
2022/09/30 14:58:51;;;;;;;9.18;7.25;;;;;;;16.75;65.37;68624.81;4996675;28;20045;-88
2022/09/30 15:01:20;;;;;;;8.40;6.75;;;;;;;16.63;63.50;68614.41;5008901;28;20034;-88
2022/09/30 15:03:55;;;;;;;;;;;;;;;16.65;64.84;68613.41;5010452;28;20042;-87
2022/09/30 15:06:25;;;;;;;8.65;6.72;;;;;;;16.68;66.81;68619.50;5023465;28;19921;-90
2022/09/30 15:08:58;;;;;;;8.95;6.88;;;;;;;16.61;67.06;68614.22;5024029;28;20053;-86
2022/09/30 15:11:27;;;;;;;8.02;6.63;;;;;;;16.56;68.53;68605.84;5021752;28;20530;-88
2022/09/30 15:14:06;;;;;;;7.72;6.47;;;;;;;16.44;65.32;68590.03;5017141;28;20038;-88
2022/09/30 15:16:33;;;;;;;8.10;6.35;;;;;;;16.37;66.79;68584.72;4988896;28;20046;-88
2022/09/30 15:18:59;;;;;;;8.65;6.18;;;;;;;16.59;66.37;68609.25;4988654;28;20066;-89
2022/09/30 15:21:29;;;;;;;8.68;5.50;;;;;;;16.54;65.73;68598.16;4981318;28;20046;-86
2022/09/30 15:23:57;;;;;;;7.18;5.50;;;;;;;16.75;64.89;68626.94;4980545;28;20035;-88
2022/09/30 15:26:25;;;;;;;7.05;5.75;;;;;;;16.81;65.16;68631.69;4979445;28;20468;-86
2022/09/30 15:28:51;;;;;;;8.40;7.50;;;;;;;16.85;65.41;68638.34;5003872;28;20042;-89
2022/09/30 15:31:26;;;;;;;9.05;7.53;;;;;;;16.87;64.85;68640.63;5015769;28;20435;-87
2022/09/30 15:34:06;;;;;;;13.50;7.57;;;;;;;16.98;65.76;68652.63;5008558;28;20316;-87
2022/09/30 15:36:33;;;;;;;11.68;8.10;;;;;;;17.03;65.59;68658.88;4992007;28;20050;-89
2022/09/30 15:38:59;;;;;;;10.43;7.22;;;;;;;17.02;65.49;68654.47;5011609;28;20053;-88
2022/09/30 15:41:25;;;;;;;9.10;6.93;;;;;;;16.95;64.47;68649.19;5018828;28;20130;-87
2022/09/30 15:43:52;;;;;;;10.75;7.18;;;;;;;16.97;66.79;68651.47;5013272;28;20504;-87
2022/09/30 15:46:30;;;;;;;9.00;6.80;;;;;;;17.02;66.00;68654.47;5010071;28;20301;-87
2022/09/30 15:49:00;;;;;;;10.95;7.80;;;;;;;16.92;66.91;68646.34;5035897;28;20037;-87
2022/09/30 15:51:39;;;;;;;12.07;7.32;;;;;;;16.74;66.83;68623.09;5030289;28;20038;-86
2022/09/30 15:54:13;;;;;;;10.40;7.50;;;;;;;16.65;66.34;68616.66;5012451;28;20041;-88
2022/09/30 15:56:39;;;;;;;9.85;8.25;;;;;;;16.40;68.09;68588.75;5009162;28;20050;-87
2022/09/30 15:59:16;;;;;;;9.32;6.82;;;;;;;16.27;67.41;68573.91;5011165;28;20046;-87
2022/09/30 16:01:57;;;;;;;11.13;7.85;;;;;;;16.27;69.49;68573.91;5011297;28;20083;-89
2022/09/30 16:04:25;;;;;;;9.93;7.90;;;;;;;16.17;68.79;68565.78;5000319;28;20049;-87
2022/09/30 16:07:01;;;;;;;9.57;7.93;;;;;;;16.02;69.65;68549.25;4985193;28;20043;-87
2022/09/30 16:09:30;;;;;;;11.27;8.10;;;;;;;15.92;69.58;68535.16;4931140;28;20763;-87
2022/09/30 16:12:02;;;;;;;;;;;;;;;15.92;68.90;68532.47;4952223;29;20502;-86
2022/09/30 16:14:31;;;;;;;9.15;7.70;;;;;;;15.86;69.33;68530.44;4971756;29;19929;-87
2022/09/30 16:17:00;;;;;;;9.88;7.47;;;;;;;15.82;67.95;68525.88;4971129;28;20051;-89
2022/09/30 16:19:28;;;;;;;9.60;7.20;;;;;;;15.81;69.41;68519.38;4972541;28;20058;-88
2022/09/30 16:21:54;;;;;;;11.10;8.32;;;;;;;15.84;70.12;68525.47;4974256;28;20031;-89
2022/09/30 16:24:22;;;;;;;11.43;7.63;;;;;;;15.72;71.01;68512.38;4969644;28;20047;-88
2022/09/30 16:27:29;;;;;;;10.82;7.53;;;;;;;15.60;70.48;68501.38;4970355;28;20083;-88
2022/09/30 16:29:54;;;;;;;9.57;7.30;;;;;;;;;;4968812;28;20047;-89
2022/09/30 16:32:19;;;;;;;11.70;7.60;;;;;;;15.37;70.01;68473.63;4994805;28;20062;-86
2022/09/30 16:34:45;;;;;;;11.10;7.07;;;;;;;15.28;70.87;68466.06;5013500;28;20038;-87
2022/09/30 16:37:13;;;;;;;10.05;7.15;;;;;;;15.25;70.07;68462.66;5024870;28;20038;-87
2022/09/30 16:39:42;;;;;;;10.75;7.43;;;;;;;15.16;72.55;68452.38;5017502;28;20052;-88
2022/09/30 16:42:17;;;;;;;10.05;7.55;;;;;;;15.06;71.32;68441.56;5031182;28;20616;-87
2022/09/30 16:44:45;;;;;;;10.20;7.22;;;;;;;15.04;72.79;68439.84;5032145;28;20054;-87
2022/09/30 16:47:18;;;;;;;11.02;7.88;;;;;;;14.92;72.82;68420.25;5011265;28;20037;-87
2022/09/30 16:49:44;;;;;;;9.70;8.10;;;;;;;;;;5026586;28;20041;-87
2022/09/30 16:52:19;;;;;;;9.32;7.82;;;;;;;14.70;73.95;68399.03;5022233;28;20053;-86
2022/09/30 16:54:56;;;;;;;12.55;8.75;;;;;;;14.60;73.88;68390.88;5023712;28;20046;-87
2022/09/30 16:57:21;;;;;;;10.07;7.45;;;;;;;14.53;75.08;68379.66;5000744;28;20038;-87
2022/09/30 16:59:50;;;;;;;12.07;7.68;;;;;;;14.44;74.53;68372.66;5019879;28;20534;-87
2022/09/30 17:02:20;;;;;;;10.70;7.80;;;;;;;14.43;75.58;68371.53;5009539;28;20500;-87
2022/09/30 17:04:55;;;;;;;9.82;7.18;;;;;;;14.35;75.98;68359.72;5013262;28;20088;-86
2022/09/30 17:07:26;;;;;;;12.77;7.10;;;;;;;14.20;75.36;68343.78;4990748;28;20054;-85
2022/09/30 17:09:51;;;;;;;10.30;6.47;;;;;;;14.15;76.51;68337.53;5009001;28;20042;-86
2022/09/30 17:12:22;;;;;;;9.93;6.70;;;;;;;14.08;76.27;68330.16;4988436;28;20420;-87
2022/09/30 17:15:01;;;;;;;8.80;6.75;;;;;;;14.02;76.82;68326.00;4992528;28;20049;-87
2022/09/30 17:17:26;;;;;;;9.30;6.50;;;;;;;13.92;76.94;68314.59;4996023;28;20411;-87
2022/09/30 17:19:52;;;;;;;10.80;6.68;;;;;;;13.86;77.96;68307.78;4946597;28;20036;-86
2022/09/30 17:22:17;;;;;;;8.02;6.10;;;;;;;13.82;78.15;68297.91;4959144;28;20039;-86
2022/09/30 17:24:43;;;;;;;8.95;6.20;;;;;;;13.80;77.51;68306.31;4936887;28;20063;-87
2022/09/30 17:27:08;;;;;;;9.98;6.78;;;;;;;13.75;77.90;68295.84;4939047;28;20845;-87
2022/09/30 17:29:37;;;;;;;9.65;5.82;;;;;;;;;;4918968;29;20517;-87
2022/09/30 17:32:03;;;;;;;9.93;5.97;;;;;;;13.59;78.39;68272.88;4937300;28;20077;-88
2022/09/30 17:34:29;;;;;;;9.13;6.28;;;;;;;13.54;79.14;68270.41;4945294;28;20043;-87
2022/09/30 17:36:55;;;;;;;8.07;6.18;;;;;;;13.49;79.51;68266.81;4933677;28;20044;-87
2022/09/30 17:39:27;;;;;;;7.75;5.78;;;;;;;13.41;79.37;68255.06;4932058;29;20043;-87
2022/09/30 17:44:39;;;;;;;9.00;5.97;;;;;;;13.37;79.84;68250.50;4993464;28;20072;-88
2022/09/30 17:52:16;;;;;;;8.43;5.10;;;;;;;13.13;80.84;68227.00;4879852;22;20045;-86
2022/09/30 17:54:41;;;;;;;8.43;5.50;;;;;;;13.08;81.09;68219.22;5042626;28;20048;-87
2022/09/30 17:57:07;;;;;;;6.85;5.10;;;;;;;13.12;80.78;68225.28;5021512;28;20038;-87
2022/09/30 17:59:49;;;;;;;9.50;5.63;;;;;;;13.05;80.90;68217.91;5013797;28;20042;-92
2022/09/30 18:02:16;;;;;;;6.47;5.68;;;;;;;12.99;81.95;68211.66;5008652;28;20038;-88
2022/09/30 18:04:41;;;;;;;7.30;6.20;;;;;;;12.94;81.16;68205.41;5005545;28;20025;-89
2022/09/30 18:20:05;;;;;;;10.73;6.60;;;;;;;12.65;82.39;68174.13;4889931;22;20132;-88
2022/09/30 18:22:34;;;;;;;8.65;5.60;;;;;;;12.65;82.71;68170.91;5022794;28;20049;-89
2022/09/30 18:27:43;;;;;;;7.50;5.43;;;;;;;12.53;82.65;68160.50;5032123;28;20044;-88
2022/09/30 18:30:10;;;;;;;8.55;5.55;;;;;;;12.50;82.72;68161.88;5039902;28;20033;-88
2022/09/30 18:32:35;;;;;;;7.53;5.88;;;;;;;;;;5007450;28;20049;-88
2022/09/30 18:35:06;;;;;;;6.25;5.15;;;;;;;12.51;82.93;68157.66;5005661;28;20058;-89
2022/09/30 18:37:49;;;;;;;9.63;6.28;;;;;;;12.49;83.04;68155.41;4982237;28;20073;-87
2022/09/30 18:40:17;;;;;;;5.70;4.95;;;;;;;12.41;83.27;68146.88;4975903;28;20119;-87
2022/09/30 18:42:43;;;;;;;6.35;5.25;;;;;;;12.36;83.60;68141.75;4988059;28;20053;-88
2022/09/30 18:45:11;;;;;;;10.13;5.00;;;;;;;12.39;83.26;68144.59;4992406;28;20142;-90
2022/09/30 18:47:39;;;;;;;4.95;4.13;;;;;;;12.35;83.01;68140.63;4962321;28;20028;-90
2022/09/30 18:50:05;;;;;;;8.40;4.68;;;;;;;;;;4935063;29;20043;-88
2022/09/30 18:52:31;;;;;;;7.40;4.85;;;;;;;12.34;83.23;68139.50;4967766;28;20094;-86
2022/09/30 18:55:06;;;;;;;7.85;5.70;;;;;;;12.30;83.40;68134.38;4965693;28;20067;-86
2022/09/30 18:57:40;;;;;;;6.70;4.80;;;;;;;;;;4963300;28;20046;-92
2022/09/30 19:00:13;;;;;;;7.07;4.30;;;;;;;12.26;83.38;68127.72;4988204;28;20046;-90
2022/09/30 19:02:39;;;;;;;5.20;4.10;;;;;;;12.18;83.77;68121.88;4982221;28;20126;-87
2022/09/30 19:05:08;;;;;;;10.10;5.28;;;;;;;12.16;83.82;68119.59;4976938;28;20125;-88
2022/09/30 19:07:33;;;;;;;6.95;4.82;;;;;;;12.14;84.12;68116.75;4968295;28;20050;-86
2022/09/30 19:10:02;;;;;;;6.55;4.80;;;;;;;;;;4938507;28;20034;-86
2022/09/30 19:12:57;;;;;;;6.70;4.50;;;;;;;12.13;83.61;68115.63;4975310;28;20066;-91
2022/09/30 19:15:22;;;;;;;6.47;5.10;;;;;;;;;;5012058;28;20053;-86
2022/09/30 19:17:51;;;;;;;8.30;4.60;;;;;;;12.11;84.01;68110.66;5022601;28;20050;-88
2022/09/30 19:20:17;;;;;;;5.53;4.00;;;;;;;;;;5010510;28;20567;-86
2022/09/30 19:22:42;;;;;;;5.60;3.70;;;;;;;12.03;84.03;68102.16;5016403;28;20045;-88
2022/09/30 19:25:10;;;;;;;7.50;4.65;;;;;;;12.04;84.02;68110.72;5036591;28;20048;-87
2022/09/30 19:28:15;;;;;;;4.72;3.83;;;;;;;12.05;83.75;68111.88;5020046;28;20306;-87
2022/09/30 19:30:54;;;;;;;5.35;4.22;;;;;;;12.03;84.12;68101.59;5006796;28;20050;-89
2022/09/30 19:33:24;;;;;;;6.05;4.45;;;;;;;11.98;84.09;68093.81;4973994;28;20057;-92
2022/09/30 19:35:59;;;;;;;6.20;4.07;;;;;;;11.96;84.44;68097.44;4975653;28;20564;-89
2022/09/30 19:38:25;;;;;;;4.22;3.25;;;;;;;;;;4977787;28;20163;-87
2022/09/30 19:40:54;;;;;;;7.07;4.30;;;;;;;11.98;84.02;68098.59;4993134;28;20050;-87
2022/09/30 19:43:19;;;;;;;;;;;;;;;11.93;84.37;68094.03;4977328;28;20049;-88
2022/09/30 19:45:53;;;;;;;5.30;3.70;;;;;;;11.88;84.67;68096.38;4975481;28;19914;-88
2022/09/30 19:48:19;;;;;;;4.05;2.80;;;;;;;11.90;84.23;68087.38;4992368;28;20315;-88
2022/09/30 19:50:44;;;;;;;4.35;2.88;;;;;;;11.93;84.27;68093.47;4973698;28;20137;-87
2022/09/30 19:53:10;;;;;;;4.10;2.80;;;;;;;;;;4989244;28;20042;-87
2022/09/30 19:55:35;;;;;;;4.30;3.35;;;;;;;11.94;84.44;68095.19;4979309;28;20047;-87
2022/09/30 19:58:01;;;;;;;4.68;2.92;;;;;;;;;;4988894;28;20105;-87
2022/09/30 20:00:26;;;;;;;5.03;3.35;;;;;;;11.94;84.10;68089.84;4990677;28;20038;-87
2022/09/30 20:02:51;;;;;;;7.20;3.05;;;;;;;11.95;83.86;68096.31;4990883;28;20046;-87
2022/09/30 20:05:17;;;;;;;6.03;3.00;;;;;;;11.99;83.60;68099.72;5035415;28;20050;-87
2022/09/30 20:07:42;;;;;;;3.13;2.30;;;;;;;12.03;83.31;68104.28;4962716;28;20062;-87